Latest Weather Observations for Clermont Airport

IDQ60801

Issued at 2:05 pm EST Wednesday 24 September 2014 (issued every 30 minutes, with the page automatically refreshed every 10 minutes)

About weather observations | Map of weather stations | Latest weather observations for QLD | Other Formats
Station Details ID: 035124 Name: CLERMONT AIRPORT Lat: -22.78 Lon: 147.62 Height: 270.27 m
Data from the previous 72 hours. | See also: Recent months at Clermont Airport
Date/Time
EST
Temp
°C
App
Temp
°C
Dew
Point
Rel
Hum
%
Delta-T
°C
Wind Press
QNH
hPa
Press
MSL
hPa
Rain
since 9 am
mm
Dir
 
Spd
km/h
Gust
km/h
Spd
kts
Gust
kts
24/02:00pm 25.1 24.9 14.6 52 6.3 N 9 20 5 11 1018.2 1017.2 0.0
24/01:30pm 25.1 25.4 14.9 53 6.2 ENE 7 13 4 7 1018.8 1017.8 0.0
24/01:00pm 24.4 24.2 14.8 55 5.8 NE 9 19 5 10 1019.1 1018.1 0.0
24/12:30pm 23.4 22.4 14.7 58 5.2 ENE 13 20 7 11 1019.7 1018.8 0.0
24/12:00pm 23.3 22.8 14.8 59 5.1 NNE 11 20 6 11 1020.4 1019.5 0.0
24/11:30am 23.0 22.6 15.1 61 4.7 NNE 11 28 6 15 1020.7 1019.8 0.0
24/11:00am 22.7 23.0 15.0 61 4.6 NE 7 15 4 8 1021.3 1020.4 0.0
24/10:30am 22.5 22.5 15.1 63 4.4 E 9 24 5 13 1021.7 1020.8 0.0
24/10:00am 20.8 21.3 15.1 70 3.4 E 6 11 3 6 1022.3 1021.3 0.0
24/09:30am 19.5 19.7 14.7 74 2.8 SE 7 11 4 6 1022.8 1021.9 0.0
24/09:00am 19.1 19.3 14.8 76 2.5 E 7 13 4 7 1022.8 1021.9 0.2
24/08:30am 18.0 18.4 14.7 81 1.9 ESE 6 9 3 5 1022.7 1021.8 0.2
24/08:00am 17.2 17.4 14.8 86 1.4 SSE 7 13 4 7 1022.6 1021.7 0.2
24/07:30am 16.1 16.1 14.1 88 1.1 SE 7 13 4 7 1022.3 1021.3 0.2
24/07:00am 15.6 15.8 14.1 91 0.9 SSE 6 9 3 5 1022.3 1021.3 0.2
24/06:30am 15.1 15.2 14.0 93 0.6 S 6 9 3 5 1021.7 1020.8 0.2
24/06:00am 14.8 15.2 13.7 93 0.6 S 4 6 2 3 1021.3 1020.4 0.2
24/05:30am 14.6 14.9 13.5 93 0.6 ESE 4 7 2 4 1021.2 1020.3 0.2
24/05:00am 14.5 14.8 13.4 93 0.6 S 4 6 2 3 1021.3 1020.4 0.2
24/04:30am 14.6 14.9 13.3 92 0.7 SSE 4 7 2 4 1021.0 1020.1 0.2
24/04:00am 14.6 14.9 13.5 93 0.6 SSE 4 6 2 3 1020.8 1019.9 0.2
24/03:30am 14.4 14.3 13.3 93 0.6 S 6 7 3 4 1020.9 1020.0 0.2
24/03:00am 14.8 15.1 13.3 91 0.8 SSE 4 6 2 3 1021.0 1020.1 0.2
24/02:30am 15.1 15.1 13.5 90 0.9 SE 6 9 3 5 1021.0 1020.1 0.2
24/02:00am 15.2 15.1 13.4 89 1.0 SE 6 9 3 5 1021.1 1020.2 0.2
24/01:30am 15.5 15.5 13.5 88 1.1 SE 6 9 3 5 1021.3 1020.4 0.2
24/01:00am 15.7 16.0 13.4 86 1.3 SE 4 6 2 3 1021.6 1020.7 0.2
24/12:30am 16.1 16.3 13.2 83 1.6 ESE 4 6 2 3 1022.0 1021.0 0.2
24/12:00am 16.9 16.9 13.6 81 1.9 E 6 13 3 7 1022.2 1021.2 0.2
 
Date/Time
EST
Temp
°C
App
Temp
°C
Dew
Point
Rel
Hum
%
Delta-T
°C
Wind Press
QNH
hPa
Press
MSL
hPa
Rain
since 9 am
mm
Dir
 
Spd
km/h
Gust
km/h
Spd
kts
Gust
kts
23/11:30pm 17.0 17.0 13.5 80 2.0 ENE 6 9 3 5 1022.6 1021.7 0.2
23/11:00pm 16.9 16.8 13.4 80 2.0 E 6 9 3 5 1022.6 1021.7 0.2
23/10:30pm 17.1 17.4 13.4 79 2.1 E 4 6 2 3 1022.4 1021.4 0.2
23/10:00pm 17.4 18.1 13.5 78 2.2 E 2 6 1 3 1022.4 1021.4 0.2
23/09:30pm 17.7 18.1 13.8 78 2.2 E 4 7 2 4 1022.3 1021.3 0.2
23/09:00pm 18.3 18.7 13.8 75 2.6 E 4 6 2 3 1022.2 1021.2 0.2
23/08:30pm 18.8 18.9 13.9 73 2.8 E 6 13 3 7 1022.0 1021.0 0.2
23/08:00pm 19.3 19.3 13.7 70 3.2 E 6 11 3 6 1021.5 1020.6 0.2
23/07:30pm 20.2 19.9 13.4 65 3.9 E 7 15 4 8 1021.2 1020.3 0.2
23/07:00pm 21.0 20.5 13.7 63 4.2 ENE 9 17 5 9 1020.8 1019.9 0.2
23/06:30pm 21.4 20.7 13.3 60 4.7 ENE 9 17 5 9 1020.3 1019.4 0.2
23/06:00pm 22.5 21.3 12.7 54 5.6 ENE 11 19 6 10 1019.9 1019.0 0.2
23/05:30pm 23.9 22.7 12.8 49 6.5 ENE 11 22 6 12 1019.4 1018.5 0.2
23/05:00pm 25.0 23.4 12.9 47 7.1 ENE 13 24 7 13 1019.2 1018.3 0.2
23/04:30pm 24.2 24.0 13.7 52 6.2 E 7 15 4 8 1019.2 1018.3 0.2
23/04:00pm 25.2 23.7 13.1 47 7.1 ENE 13 22 7 12 1019.2 1018.3 0.2
23/03:30pm 24.1 23.0 13.0 50 6.5 E 11 19 6 10 1019.4 1018.5 0.2
23/03:00pm 25.0 24.2 13.9 50 6.6 ENE 11 22 6 12 1019.5 1018.6 0.2
23/02:30pm 24.0 22.8 14.1 54 5.9 E 13 19 7 10 1020.0 1019.1 0.2
23/02:00pm 22.8 21.6 14.1 58 5.1 ENE 13 20 7 11 1020.3 1019.4 0.2
23/01:30pm 22.5 21.7 14.1 59 5.0 E 11 20 6 11 1020.7 1019.8 0.2
23/01:00pm 22.5 21.1 14.6 61 4.7 E 15 26 8 14 1021.0 1020.1 0.2
23/12:30pm 22.2 21.3 14.8 63 4.4 E 13 22 7 12 1021.5 1020.6 0.0
23/12:00pm 21.1 19.7 14.5 66 3.9 E 15 24 8 13 1022.2 1021.2 0.0
23/11:30am 20.3 19.3 14.7 70 3.3 E 13 20 7 11 1022.7 1021.8 0.0
23/11:00am 19.8 18.9 14.8 73 2.9 E 13 19 7 10 1023.1 1022.2 0.0
23/10:30am 19.0 17.8 14.1 73 2.9 E 13 22 7 12 1023.7 1022.8 0.0
23/10:00am 18.2 17.9 14.5 79 2.2 SE 9 15 5 8 1023.8 1022.9 0.0
23/09:30am 17.3 16.9 14.2 82 1.8 ESE 9 17 5 9 1023.9 1023.0 0.0
23/09:00am 16.9 15.7 14.0 83 1.7 SE 13 20 7 11 1023.9 1023.0 9.8
23/08:30am 16.3 15.1 14.0 86 1.3 ESE 13 20 7 11 1023.7 1022.8 9.8
23/08:00am 15.8 14.9 13.8 88 1.1 ESE 11 17 6 9 1023.5 1022.6 9.8
23/07:30am 15.5 14.7 13.9 90 0.9 SE 11 17 6 9 1022.9 1022.0 9.8
23/07:00am 15.2 14.3 13.7 91 0.8 SE 11 17 6 9 1022.5 1021.6 9.8
23/06:30am 14.9 14.6 13.4 91 0.8 SE 7 13 4 7 1022.5 1021.6 9.8
23/06:00am 14.8 13.8 13.3 91 0.8 SE 11 17 6 9 1022.2 1021.2 9.8
23/05:30am 14.8 14.1 13.2 90 0.9 SE 9 15 5 8 1021.8 1020.9 9.8
23/05:00am 14.8 13.7 13.2 90 0.9 SE 11 17 6 9 1021.7 1020.8 9.8
23/04:30am 14.8 13.8 13.3 91 0.8 SE 11 17 6 9 1021.5 1020.6 9.8
23/04:00am 14.7 13.7 13.4 92 0.7 SE 11 17 6 9 1021.4 1020.5 9.8
23/03:30am 14.8 14.1 13.3 91 0.8 SE 9 13 5 7 1021.3 1020.4 9.8
23/03:00am 14.8 14.1 13.3 91 0.8 SE 9 19 5 10 1021.4 1020.5 9.8
23/02:30am 14.7 13.6 13.2 91 0.8 SE 11 19 6 10 1021.4 1020.5 9.8
23/02:00am 14.8 13.4 13.5 92 0.7 SE 13 22 7 12 1021.6 1020.7 9.8
23/01:30am 14.8 14.1 13.3 91 0.8 SE 9 17 5 9 1022.0 1021.0 9.8
23/01:00am 14.9 13.9 13.4 91 0.8 SE 11 19 6 10 1022.1 1021.1 9.8
23/12:30am 14.9 13.5 13.3 90 0.9 SE 13 22 7 12 1022.3 1021.3 9.8
23/12:00am 14.9 13.5 13.3 90 0.9 SE 13 20 7 11 1022.8 1021.9 9.8
 
Date/Time
EST
Temp
°C
App
Temp
°C
Dew
Point
Rel
Hum
%
Delta-T
°C
Wind Press
QNH
hPa
Press
MSL
hPa
Rain
since 9 am
mm
Dir
 
Spd
km/h
Gust
km/h
Spd
kts
Gust
kts
22/11:30pm 14.9 14.2 13.3 90 0.9 ESE 9 17 5 9 1023.0 1022.1 9.8
22/11:00pm 14.9 13.8 13.1 89 1.0 ESE 11 20 6 11 1023.2 1022.3 9.8
22/10:30pm 14.8 14.1 13.2 90 0.9 ESE 9 19 5 10 1023.5 1022.6 9.8
22/10:00pm 14.8 13.3 13.0 89 1.0 SE 13 20 7 11 1023.3 1022.4 9.8
22/09:30pm 15.0 13.5 13.0 88 1.1 SE 13 26 7 14 1023.6 1022.7 9.8
22/09:00pm 15.0 14.0 13.5 91 0.8 SE 11 19 6 10 1023.6 1022.7 9.8
22/08:30pm 14.8 13.9 13.7 93 0.6 SE 11 20 6 11 1023.4 1022.5 9.8
22/08:00pm 14.9 14.0 13.8 93 0.6 SE 11 19 6 10 1022.9 1022.0 9.8
22/07:30pm 14.7 13.8 13.7 94 0.6 SE 11 19 6 10 1022.5 1021.6 9.8
22/07:00pm 15.2 13.9 13.6 90 0.9 SE 13 24 7 13 1022.2 1021.2 9.8
22/06:30pm 15.1 13.8 13.6 91 0.8 SE 13 22 7 12 1021.8 1020.9 9.8
22/06:00pm 15.7 14.3 13.4 86 1.3 SE 13 20 7 11 1021.5 1020.6 9.6
22/05:30pm 16.0 15.0 13.5 85 1.4 SE 11 19 6 10 1021.3 1020.4 9.6
22/05:00pm 16.1 14.6 13.2 83 1.6 SE 13 22 7 12 1020.9 1020.0 9.6
22/04:30pm 16.3 14.5 13.4 83 1.6 SE 15 32 8 17 1020.6 1019.7 9.6
22/04:00pm 16.2 14.0 13.3 83 1.6 SE 17 24 9 13 1020.3 1019.4 9.6
22/03:30pm 16.5 14.0 13.6 83 1.7 SSE 19 24 10 13 1020.1 1019.2 9.6
22/03:00pm 16.6 15.4 13.9 84 1.5 ESE 13 24 7 13 1020.0 1019.1 9.6
22/02:30pm 16.4 14.9 14.2 87 1.3 SE 15 30 8 16 1019.7 1018.8 9.6
22/02:00pm 15.2 12.8 13.9 92 0.7 SE 19 33 10 18 1020.1 1019.2 9.6
22/01:30pm 14.9 13.6 13.8 93 0.6 ESE 13 22 7 12 1021.5 1020.6 9.4
22/01:00pm 14.7 13.7 13.4 92 0.7 SE 11 20 6 11 1022.3 1021.3 8.6
22/12:30pm 14.5 13.8 13.2 92 0.7 ESE 9 17 5 9 1022.4 1021.4 8.4
22/12:00pm 14.3 12.8 13.0 92 0.7 SE 13 22 7 12 1022.6 1021.7 8.2
22/11:30am 14.2 12.4 13.2 94 0.6 SE 15 24 8 13 1023.3 1022.4 8.2
22/11:00am 13.9 12.8 13.0 94 0.5 ESE 11 24 6 13 1023.5 1022.6 7.4
22/10:30am 13.8 12.2 12.9 94 0.5 SSE 13 20 7 11 1024.1 1023.2 6.4
22/10:00am 13.5 11.8 12.6 94 0.5 SSE 13 19 7 10 1024.1 1023.2 5.8
22/09:30am 13.3 12.4 12.5 95 0.4 S 9 17 5 9 1024.4 1023.5 3.2
22/09:00am 13.3 11.6 12.5 95 0.4 S 13 20 7 11 1024.1 1023.2 61.6
22/08:30am 13.2 11.1 12.4 95 0.4 SSE 15 28 8 15 1023.4 1022.5 59.2
22/08:00am 13.1 11.4 12.3 95 0.4 SSE 13 24 7 13 1023.3 1022.4 56.0
22/07:30am 13.2 10.7 12.3 94 0.5 S 17 24 9 13 1023.0 1022.1 51.2
22/07:00am 13.2 11.8 12.3 94 0.5 S 11 22 6 12 1022.3 1021.3 47.2
22/06:30am 13.3 10.8 12.4 94 0.5 S 17 26 9 14 1022.0 1021.0 43.4
22/06:00am 13.3 10.4 12.4 94 0.5 S 19 26 10 14 1021.3 1020.4 41.8
22/05:30am 13.4 10.4 12.5 94 0.5 S 20 30 11 16 1021.3 1020.4 40.0
22/05:00am 13.4 10.4 12.6 95 0.4 S 20 32 11 17 1021.2 1020.3 36.8
22/04:30am 13.4 10.6 12.6 95 0.4 SSW 19 30 10 16 1020.9 1020.0 33.2
22/04:00am 13.5 11.5 12.7 95 0.4 SSW 15 20 8 11 1020.5 1019.6 26.6
22/03:30am 13.9 12.4 13.1 95 0.4 SSW 13 20 7 11 1020.1 1019.2 19.6
22/03:00am 14.1 12.7 13.3 95 0.4 S 13 19 7 10 1019.9 1019.0 17.4
22/02:30am 13.9 12.4 13.1 95 0.4 S 13 17 7 9 1020.5 1019.6 14.8
22/02:00am 14.1 13.4 13.1 94 0.6 SSW 9 11 5 6 1021.0 1020.1 11.6
22/01:30am 14.2 13.8 13.1 93 0.6 SW 7 9 4 5 1021.1 1020.2 8.4
22/01:00am 14.4 13.6 12.8 90 0.9 SSE 9 13 5 7 1020.6 1019.7 6.4
22/12:30am 14.3 13.1 12.7 90 0.9 SE 11 20 6 11 1020.4 1019.5 6.4
22/12:00am 14.2 13.4 12.8 91 0.8 SE 9 19 5 10 1020.6 1019.7 6.4
 
Date/Time
EST
Temp
°C
App
Temp
°C
Dew
Point
Rel
Hum
%
Delta-T
°C
Wind Press
QNH
hPa
Press
MSL
hPa
Rain
since 9 am
mm
Dir
 
Spd
km/h
Gust
km/h
Spd
kts
Gust
kts
21/11:30pm 14.0 13.1 12.7 92 0.7 ESE 9 19 5 10 1020.6 1019.7 6.4
21/11:00pm 14.0 12.3 12.6 91 0.8 ESE 13 20 7 11 1020.0 1019.1 6.2
21/10:30pm 14.1 13.8 12.8 92 0.7 SE 6 11 3 6 1022.0 1021.0 5.6
21/10:00pm 14.3 14.8 12.9 91 0.8 NNE 2 7 1 4 1022.6 1021.7 5.0
21/09:30pm 14.1 13.2 12.5 90 0.9 SE 9 15 5 8 1021.8 1020.9 4.8
21/09:00pm 14.3 13.0 12.5 89 1.0 S 11 17 6 9 1022.1 1021.1 4.8
21/08:30pm 14.2 13.2 12.4 89 1.0 SE 9 15 5 8 1021.0 1020.1 4.8
21/08:00pm 14.8 13.7 11.9 83 1.6 SE 9 15 5 8 1022.1 1021.1 4.2
21/07:30pm 14.6 13.0 11.7 83 1.6 ESE 11 19 6 10 1021.4 1020.5 4.2
21/07:00pm 14.9 13.2 12.4 85 1.4 E 13 24 7 13 1020.9 1020.0 4.2
21/06:30pm 14.9 13.5 13.4 91 0.8 E 13 19 7 10 1020.3 1019.4 4.2
21/06:00pm 15.1 15.0 13.3 89 1.0 ESE 6 11 3 6 1021.3 1020.4 3.8
21/05:30pm 15.1 13.6 13.1 88 1.1 E 13 22 7 12 1020.4 1019.5 3.8
21/05:00pm 15.4 14.8 13.6 89 1.0 S 9 13 5 7 1020.8 1019.9 3.2
21/04:30pm 16.2 15.0 12.7 80 2.0 SSE 11 17 6 9 1020.3 1019.4 0.8
21/04:00pm 18.2 15.3 11.0 63 3.9 SE 17 28 9 15 1020.0 1019.1 0.0
21/03:30pm 18.4 14.2 11.0 62 4.1 SSE 24 41 13 22 1020.1 1019.2 0.0
21/03:00pm 18.4 14.2 11.2 63 4.0 SSE 24 46 13 25 1019.2 1018.3 0.0
21/02:30pm 18.5 14.6 12.0 66 3.6 SSE 24 37 13 20 1020.0 1019.1 0.0

Other Formats:

Comma delimited format used in spreadsheet applications
http://www.bom.gov.au/fwo/IDQ60801/IDQ60801.94395.axf

JavaScript Object Notation format (JSON) in row-major order
http://www.bom.gov.au/fwo/IDQ60801/IDQ60801.94395.json